Terminal Aerodrome Forecast
Issued by NWS Portland, OR

Home | Current Version | Previous Version | Text Only | Print | Product List | Glossary On
Versions: 1 2 3 4 5 6 7 8 9 10 11 12 13 14 15 16 17 18 19 20 21 22 23 24 25 26 27 28
000
FTUS46 KPQR 302340
TAFEUG
TAF
KEUG 302340Z 3100/3124 24010KT P6SM VCSH SCT015 BKN035 BKN050
     FM310200 32006KT P6SM SCT035 BKN050
     FM310400 32004KT P6SM BKN050
     FM311000 VRB03KT P6SM BKN025
     FM311400 VRB05KT P6SM SCT025 BKN050
     FM312000 34006KT P6SM SCT070=

USA.gov is the U.S. government's official web portal to all federal, state and local government web resources and services.